Time;durP1;ratioP1;P1;durP2;ratioP2;P2;SDS_P1;SDS_P2;PMS_P1;PMS_P2;Temp;Humidity;BMP_temperature;BMP_pressure;BME280_temperature;BME280_humidity;BME280_pressure;Samples;Min_cycle;Max_cycle;Signal;HPM_P1;HPM_P2
2022/11/11 00:01:40;;;;;;;55.03;25.55;;;;;;;7.88;100.00;102752.28;5071767;28;20107;-48
2022/11/11 00:04:06;;;;;;;54.80;25.45;;;;;;;7.94;100.00;102756.97;5072211;28;20030;-47
2022/11/11 00:06:31;;;;;;;58.38;26.52;;;;;;;7.97;100.00;102762.31;5072404;28;20185;-48
2022/11/11 00:08:56;;;;;;;58.90;27.55;;;;;;;8.00;100.00;102762.53;5071287;28;20024;-47
2022/11/11 00:11:21;;;;;;;58.25;28.15;;;;;;;8.04;100.00;102764.56;5072279;28;20034;-46
2022/11/11 00:13:47;;;;;;;56.50;29.48;;;;;;;8.07;100.00;102766.44;5074969;28;20024;-49
2022/11/11 00:16:15;;;;;;;55.03;30.48;;;;;;;8.08;100.00;102765.63;5075246;28;20134;-44
2022/11/11 00:27:06;;;;;;;64.53;30.17;;;;;;;8.16;100.00;102761.94;5075806;28;20040;-44
2022/11/11 00:29:31;;;;;;;65.15;31.83;;;;;;;8.17;100.00;102762.81;5075113;28;20103;-44
2022/11/11 00:35:51;;;;;;;71.28;35.45;;;;;;;8.19;100.00;102764.72;5075884;28;20043;-45
2022/11/11 00:37:25;;;;;;;63.40;33.88;;;;;;;8.20;100.00;102761.38;5074998;28;20561;-46
2022/11/11 00:39:51;;;;;;;64.32;33.38;;;;;;;8.21;100.00;102772.53;5075802;28;20056;-46
2022/11/11 00:42:16;;;;;;;63.35;34.55;;;;;;;8.22;100.00;102775.22;5075193;28;20021;-44
2022/11/11 00:44:41;;;;;;;69.80;34.80;;;;;;;8.24;100.00;102773.63;5075021;28;20021;-48
2022/11/11 00:52:35;;;;;;;66.00;35.40;;;;;;;8.27;100.00;102783.25;5075750;28;20129;-46
2022/11/11 00:55:00;;;;;;;70.75;37.55;;;;;;;8.29;100.00;102775.63;5075093;28;20074;-48
2022/11/11 00:57:25;;;;;;;69.90;35.40;;;;;;;8.29;100.00;102776.53;5074543;28;20028;-47
2022/11/11 00:59:51;;;;;;;64.63;34.90;;;;;;;8.32;100.00;102786.16;5075463;28;20520;-48
2022/11/11 01:02:16;;;;;;;72.85;37.50;;;;;;;8.34;100.00;102789.69;5074826;28;20020;-45
2022/11/11 01:04:41;;;;;;;68.57;36.20;;;;;;;8.35;100.00;102796.63;5074538;28;20041;-47
2022/11/11 01:07:07;;;;;;;71.85;37.50;;;;;;;8.35;100.00;102799.19;5074776;28;20024;-48
2022/11/11 01:09:32;;;;;;;72.75;34.92;;;;;;;8.36;100.00;102798.41;5075210;28;20041;-48
2022/11/11 01:11:57;;;;;;;84.22;36.65;;;;;;;8.37;100.00;102805.34;5073834;28;20021;-47
2022/11/11 01:14:23;;;;;;;67.70;35.38;;;;;;;8.37;100.00;102801.09;5074986;28;20027;-47
2022/11/11 01:16:48;;;;;;;66.60;36.00;;;;;;;8.38;100.00;102802.88;5075130;28;20129;-48
2022/11/11 01:19:13;;;;;;;73.25;36.80;;;;;;;8.40;100.00;102801.31;5073671;28;20040;-47
2022/11/11 01:21:38;;;;;;;76.38;36.30;;;;;;;8.40;100.00;102801.31;5074954;28;20031;-44
2022/11/11 01:24:04;;;;;;;78.18;37.70;;;;;;;8.42;100.00;102793.72;5073005;28;20086;-45
2022/11/11 01:26:29;;;;;;;67.85;36.45;;;;;;;8.43;100.00;102794.59;5074092;28;20031;-46
2022/11/11 01:28:55;;;;;;;71.97;36.95;;;;;;;8.43;100.00;102794.59;5074395;28;20024;-45
2022/11/11 01:31:22;;;;;;;74.82;37.17;;;;;;;8.44;100.00;102791.25;5074568;28;20067;-47
2022/11/11 01:33:48;;;;;;;74.85;36.97;;;;;;;8.44;100.00;102794.69;5074060;28;20032;-44
2022/11/11 01:36:22;;;;;;;75.30;36.95;;;;;;;8.44;100.00;102799.81;5074428;28;20066;-47
2022/11/11 01:38:49;;;;;;;76.40;37.28;;;;;;;8.44;100.00;102786.97;5074385;28;20494;-47
2022/11/11 01:41:35;;;;;;;69.53;37.17;;;;;;;8.45;100.00;102783.63;5073621;28;20028;-46
2022/11/11 01:44:16;;;;;;;71.55;37.30;;;;;;;8.45;100.00;102782.75;5074206;28;20380;-48
2022/11/11 01:46:58;;;;;;;66.90;35.42;;;;;;;8.45;100.00;102777.63;5073683;28;20052;-48
2022/11/11 01:49:33;;;;;;;69.13;36.47;;;;;;;8.46;100.00;102782.00;5074230;28;20071;-47
2022/11/11 01:52:05;;;;;;;85.20;38.67;;;;;;;8.44;100.00;102783.53;5073941;28;20028;-48
2022/11/11 01:54:49;;;;;;;66.10;35.80;;;;;;;8.45;100.00;102778.50;5073752;28;20025;-47
2022/11/11 01:57:23;;;;;;;68.10;35.88;;;;;;;8.46;100.00;102769.16;5073880;28;20029;-47
2022/11/11 01:59:59;;;;;;;76.63;37.92;;;;;;;8.44;100.00;102770.69;5073861;28;20028;-43
2022/11/11 02:02:47;;;;;;;76.88;39.53;;;;;;;8.45;100.00;102767.34;5073663;28;20048;-48
2022/11/11 02:08:06;;;;;;;76.40;37.55;;;;;;;8.44;100.00;102769.00;5073032;28;20151;-47
2022/11/11 02:10:32;;;;;;;68.90;36.78;;;;;;;8.42;100.00;102765.44;5073863;28;20020;-47
2022/11/11 02:15:43;;;;;;;75.85;37.13;;;;;;;8.40;100.00;102747.34;5073657;28;20051;-46
2022/11/11 02:18:08;;;;;;;80.22;38.47;;;;;;;8.42;100.00;102744.88;5073476;28;20024;-47
2022/11/11 02:20:37;;;;;;;72.47;37.15;;;;;;;8.41;100.00;102746.53;5073557;28;20031;-47
2022/11/11 02:23:25;;;;;;;78.55;37.15;;;;;;;8.44;100.00;102744.97;5072701;28;20107;-45
2022/11/11 02:25:54;;;;;;;80.70;40.03;;;;;;;8.41;100.00;102750.81;5073807;28;20028;-44
2022/11/11 02:28:20;;;;;;;76.72;36.90;;;;;;;8.39;100.00;102737.84;5072665;28;20032;-45
2022/11/11 02:30:46;;;;;;;77.50;38.75;;;;;;;8.39;100.00;102747.22;5073414;28;20472;-46
2022/11/11 02:33:11;;;;;;;83.65;38.45;;;;;;;8.38;100.00;102750.59;5073205;28;20161;-47
2022/11/11 02:35:42;;;;;;;75.93;37.10;;;;;;;8.37;100.00;102753.97;5072235;28;20021;-47
2022/11/11 02:38:09;;;;;;;79.40;37.90;;;;;;;8.36;100.00;102755.63;5073297;28;20047;-47
2022/11/11 02:43:30;;;;;;;82.65;38.38;;;;;;;8.36;100.00;102749.59;5072750;28;20150;-48
2022/11/11 02:45:56;;;;;;;76.15;37.90;;;;;;;8.34;100.00;102743.44;5072735;28;20460;-47
2022/11/11 02:48:22;;;;;;;84.22;37.17;;;;;;;8.33;100.00;102744.25;5072857;28;20050;-45
2022/11/11 02:50:47;;;;;;;78.47;37.22;;;;;;;8.31;100.00;102744.13;5072624;28;20027;-45
2022/11/11 02:53:13;;;;;;;88.13;40.10;;;;;;;8.30;100.00;102741.47;5072745;28;20032;-45
2022/11/11 02:55:38;;;;;;;81.35;36.83;;;;;;;8.28;100.00;102731.09;5072908;28;20028;-46
2022/11/11 02:58:03;;;;;;;80.95;36.33;;;;;;;8.26;100.00;102731.75;5072082;28;20032;-47
2022/11/11 03:00:29;;;;;;;71.70;36.22;;;;;;;8.25;100.00;102738.59;5072942;28;20468;-46
2022/11/11 03:02:54;;;;;;;79.85;36.97;;;;;;;8.23;100.00;102741.03;5072679;28;20460;-46
2022/11/11 03:05:20;;;;;;;72.60;34.67;;;;;;;8.22;100.00;102741.84;5072558;28;20031;-47
2022/11/11 03:07:45;;;;;;;70.05;36.03;;;;;;;8.22;100.00;102744.41;5072967;28;20070;-45
2022/11/11 03:10:10;;;;;;;71.55;35.38;;;;;;;8.20;100.00;102740.81;5072429;28;20052;-48
2022/11/11 03:12:36;;;;;;;76.75;36.28;;;;;;;8.18;100.00;102739.81;5072346;28;20100;-47
2022/11/11 03:15:01;;;;;;;66.72;32.95;;;;;;;8.17;100.00;102735.50;5072502;28;20024;-48
2022/11/11 03:17:39;;;;;;;70.10;33.55;;;;;;;8.16;100.00;102745.63;5072750;28;20380;-48
2022/11/11 03:23:11;;;;;;;65.55;33.53;;;;;;;8.15;100.00;102747.31;5073047;28;20113;-47
2022/11/11 03:25:42;;;;;;;63.28;32.90;;;;;;;8.16;100.00;102749.09;5071788;28;20402;-47
2022/11/11 03:28:16;;;;;;;67.05;33.40;;;;;;;8.15;100.00;102744.75;5073424;28;20051;-45
2022/11/11 03:30:44;;;;;;;73.57;33.00;;;;;;;8.15;100.00;102749.00;5073201;28;20073;-46
2022/11/11 03:33:10;;;;;;;;;;;;;;;8.21;100.00;102749.41;5073194;28;20024;-47
2022/11/11 03:35:36;;;;;;;67.55;33.28;;;;;;;8.15;100.00;102746.44;5073170;28;19919;-48
2022/11/11 03:38:15;;;;;;;65.18;31.98;;;;;;;8.14;100.00;102744.66;5072155;28;20028;-47
2022/11/11 03:40:45;;;;;;;60.08;31.50;;;;;;;8.11;100.00;102736.69;5071966;28;20052;-46
2022/11/11 03:43:14;;;;;;;63.78;31.52;;;;;;;8.12;100.00;102741.97;5072853;28;20017;-43
2022/11/11 03:45:40;;;;;;;64.75;33.72;;;;;;;8.08;100.00;102746.00;5071529;28;20491;-47
2022/11/11 03:48:06;;;;;;;64.50;30.88;;;;;;;8.08;100.00;102732.25;5074188;28;20115;-46
2022/11/11 03:50:32;;;;;;;61.17;30.50;;;;;;;8.07;100.00;102733.06;5076808;28;20100;-45
2022/11/11 03:52:57;;;;;;;73.18;33.03;;;;;;;8.05;100.00;102724.34;5075644;28;20163;-47
2022/11/11 03:55:23;;;;;;;66.82;32.80;;;;;;;8.04;100.00;102735.38;5076567;28;20497;-47
2022/11/11 03:57:48;;;;;;;64.50;31.60;;;;;;;8.03;100.00;102737.06;5076283;28;20028;-45
2022/11/11 04:00:16;;;;;;;67.63;31.60;;;;;;;8.02;100.00;102743.00;5075694;28;20016;-46
2022/11/11 04:11:02;;;;;;;69.00;29.98;;;;;;;7.96;100.00;102759.66;5076579;28;20043;-45
2022/11/11 04:16:13;;;;;;;69.80;33.85;;;;;;;7.90;100.00;102758.44;5076001;28;20134;-48
2022/11/11 04:21:42;;;;;;;64.38;31.50;;;;;;;7.91;100.00;102762.78;5075458;28;20040;-47
2022/11/11 04:27:14;;;;;;;66.95;31.27;;;;;;;7.84;100.00;102770.81;5013793;28;20065;-47
2022/11/11 04:29:40;;;;;;;61.25;32.22;;;;;;;7.83;100.00;102774.16;5013188;28;20092;-45
2022/11/11 04:34:56;;;;;;;65.20;32.65;;;;;;;7.84;100.00;102770.81;5075634;28;20043;-47
2022/11/11 04:37:23;;;;;;;68.53;32.85;;;;;;;7.85;100.00;102766.56;5075828;28;20027;-47
2022/11/11 04:42:33;;;;;;;71.57;31.95;;;;;;;7.85;100.00;102764.91;5074993;28;20556;-47
2022/11/11 04:47:53;;;;;;;73.78;32.78;;;;;;;7.85;100.00;102762.34;5075062;28;20467;-47
2022/11/11 04:50:19;;;;;;;74.13;32.47;;;;;;;7.84;100.00;102762.25;5074663;28;20396;-48
2022/11/11 04:52:44;;;;;;;76.20;32.53;;;;;;;7.83;100.00;102757.88;5075296;28;20461;-46
2022/11/11 04:57:53;;;;;;;68.22;32.58;;;;;;;7.77;100.00;102753.19;5074802;28;20055;-45
2022/11/11 05:00:18;;;;;;;69.72;32.00;;;;;;;7.75;100.00;102760.78;5075293;28;20013;-48
2022/11/11 05:08:54;;;;;;;69.65;33.67;;;;;;;7.72;100.00;102752.88;5075511;28;20048;-46
2022/11/11 05:11:02;;;;;;;70.38;31.65;;;;;;;7.70;100.00;102756.09;5074933;28;20182;-48
2022/11/11 05:21:52;;;;;;;61.92;31.77;;;;;;;7.63;100.00;102769.25;5074965;28;20482;-44
2022/11/11 05:27:01;;;;;;;76.93;32.92;;;;;;;7.57;100.00;102760.34;5075137;28;20043;-47
2022/11/11 05:29:26;;;;;;;68.07;32.95;;;;;;;7.55;100.00;102772.19;5074887;28;20021;-47
2022/11/11 05:31:51;;;;;;;68.22;32.90;;;;;;;7.53;100.00;102773.72;5073503;28;20028;-47
2022/11/11 05:34:17;;;;;;;71.05;32.90;;;;;;;7.52;100.00;102766.81;5074590;28;20019;-47
2022/11/11 05:36:42;;;;;;;63.33;31.13;;;;;;;7.53;100.00;102775.41;5074020;28;20051;-48
2022/11/11 05:39:07;;;;;;;73.90;32.33;;;;;;;7.50;100.00;102772.59;5074161;28;20082;-45
2022/11/11 05:41:32;;;;;;;71.32;33.15;;;;;;;7.48;100.00;102769.94;5074692;28;20389;-46
2022/11/11 05:43:58;;;;;;;67.20;32.20;;;;;;;7.46;100.00;102774.03;5073873;28;20078;-46
2022/11/11 05:46:23;;;;;;;66.68;32.13;;;;;;;7.45;100.00;102767.16;5074020;28;20026;-47
2022/11/11 05:51:32;;;;;;;67.03;32.85;;;;;;;7.41;100.00;102757.44;5074428;28;20503;-47
2022/11/11 05:53:57;;;;;;;62.60;30.92;;;;;;;7.39;100.00;102770.16;5073500;28;20052;-44
2022/11/11 05:56:22;;;;;;;67.20;32.17;;;;;;;7.37;100.00;102760.56;5074088;28;20086;-45
2022/11/11 05:58:48;;;;;;;58.05;30.27;;;;;;;7.34;100.00;102776.63;5073569;28;20473;-46
2022/11/11 06:01:13;;;;;;;67.70;31.20;;;;;;;7.32;100.00;102774.72;5073436;28;20116;-45
2022/11/11 06:03:38;;;;;;;62.88;32.10;;;;;;;7.28;100.00;102770.13;5073786;28;20060;-47
2022/11/11 06:06:04;;;;;;;66.15;32.97;;;;;;;7.24;100.00;102769.94;5073950;28;20028;-43
2022/11/11 06:08:29;;;;;;;64.63;32.38;;;;;;;7.19;100.00;102775.47;5073505;28;20107;-44
2022/11/11 06:10:54;;;;;;;64.35;32.67;;;;;;;7.16;100.00;102783.84;5072912;28;20037;-45
2022/11/11 06:13:19;;;;;;;66.18;33.70;;;;;;;7.14;100.00;102787.06;5073625;28;20460;-46
2022/11/11 06:15:45;;;;;;;68.15;33.88;;;;;;;7.08;100.00;102788.38;5073376;28;20025;-47
2022/11/11 06:18:10;;;;;;;67.28;33.72;;;;;;;7.06;100.00;102791.63;5073733;28;20012;-47
2022/11/11 06:20:35;;;;;;;71.07;32.95;;;;;;;7.03;100.00;102784.59;5072546;28;20383;-46
2022/11/11 06:23:02;;;;;;;73.45;34.05;;;;;;;7.02;100.00;102782.81;5073783;28;20078;-46
2022/11/11 06:28:16;;;;;;;65.55;32.33;;;;;;;6.97;100.00;102778.09;5073403;28;20044;-44
2022/11/11 06:30:41;;;;;;;60.20;32.80;;;;;;;6.92;100.00;102786.34;5073262;28;20033;-44
2022/11/11 06:33:07;;;;;;;71.05;35.50;;;;;;;6.88;100.00;102794.59;5073130;28;20032;-48
2022/11/11 06:35:37;;;;;;;63.38;34.72;;;;;;;6.86;100.00;102790.13;5073075;28;20369;-46
2022/11/11 06:38:03;;;;;;;70.20;34.83;;;;;;;6.86;100.00;102800.38;5073492;28;20024;-47
2022/11/11 06:40:30;;;;;;;74.20;35.67;;;;;;;6.83;100.00;102805.25;5073170;28;20103;-46
2022/11/11 06:42:59;;;;;;;64.75;33.72;;;;;;;6.81;100.00;102807.69;5072361;28;20028;-47
2022/11/11 06:45:28;;;;;;;72.10;33.05;;;;;;;6.80;100.00;102816.16;5073045;28;20551;-47
2022/11/11 06:47:54;;;;;;;71.15;34.13;;;;;;;6.77;100.00;102821.06;5072660;28;20028;-44
2022/11/11 06:50:20;;;;;;;67.05;34.72;;;;;;;6.74;100.00;102816.59;5072315;28;20059;-47
2022/11/11 06:52:45;;;;;;;72.07;34.35;;;;;;;6.73;100.00;102813.91;5072828;28;20029;-47
2022/11/11 06:55:11;;;;;;;70.70;35.25;;;;;;;6.67;100.00;102810.88;5072862;28;20043;-45
2022/11/11 06:57:36;;;;;;;70.50;35.58;;;;;;;6.61;100.00;102818.09;5072276;28;20082;-44
2022/11/11 07:00:06;;;;;;;73.78;37.08;;;;;;;6.54;100.00;102812.47;5072938;28;20028;-47
2022/11/11 07:02:32;;;;;;;69.47;36.03;;;;;;;6.49;100.00;102818.91;5072672;28;20038;-45
2022/11/11 07:04:57;;;;;;;74.13;35.85;;;;;;;6.42;100.00;102808.97;5072203;28;20055;-47
2022/11/11 07:07:23;;;;;;;71.07;33.80;;;;;;;6.37;100.00;102815.41;5072928;28;20387;-47
2022/11/11 07:09:48;;;;;;;72.65;36.00;;;;;;;6.34;100.00;102818.63;5071813;28;20052;-46
2022/11/11 07:12:14;;;;;;;76.97;35.72;;;;;;;6.31;100.00;102817.47;5072848;28;20528;-47
2022/11/11 07:14:39;;;;;;;71.07;35.88;;;;;;;6.28;100.00;102818.13;5072375;28;20086;-46
2022/11/11 07:17:04;;;;;;;71.82;35.33;;;;;;;6.28;100.00;102817.25;5072216;28;20028;-47
2022/11/11 07:19:30;;;;;;;73.22;33.33;;;;;;;6.28;100.00;102814.69;5072708;28;20383;-47
2022/11/11 07:21:55;;;;;;;75.00;34.35;;;;;;;6.28;100.00;102827.50;5072389;28;20120;-48
2022/11/11 07:24:20;;;;;;;67.35;33.05;;;;;;;6.25;100.00;102828.16;5072249;28;20081;-47
2022/11/11 07:26:45;;;;;;;67.28;32.50;;;;;;;6.27;100.00;102836.81;5072312;28;20026;-47
2022/11/11 07:29:13;;;;;;;68.13;31.15;;;;;;;6.25;100.00;102834.16;5072376;28;20025;-46
2022/11/11 07:31:38;;;;;;;69.53;33.25;;;;;;;6.26;100.00;102835.94;5072033;28;20031;-45
2022/11/11 07:34:03;;;;;;;70.47;32.83;;;;;;;6.29;100.00;102840.41;5072830;28;20107;-44
2022/11/11 07:36:29;;;;;;;65.63;30.98;;;;;;;6.30;100.00;102841.28;5072545;28;20020;-44
2022/11/11 07:38:54;;;;;;;75.07;33.22;;;;;;;6.31;100.00;102846.53;5071770;28;20024;-47
2022/11/11 07:41:19;;;;;;;70.68;33.20;;;;;;;6.32;100.00;102843.22;5072462;28;20029;-46
2022/11/11 07:43:45;;;;;;;62.33;32.47;;;;;;;6.34;100.00;102844.22;5072005;28;20025;-47
2022/11/11 07:46:10;;;;;;;65.00;31.10;;;;;;;6.36;100.00;102841.78;5071848;28;20032;-46
2022/11/11 07:48:35;;;;;;;63.45;31.63;;;;;;;6.38;100.00;102850.50;5071993;28;20484;-47
2022/11/11 07:51:00;;;;;;;64.55;32.15;;;;;;;6.39;100.00;102849.69;5072467;28;20047;-47
2022/11/11 07:53:27;;;;;;;78.53;33.33;;;;;;;6.42;100.00;102848.28;5072069;28;20024;-48
2022/11/11 07:55:52;;;;;;;64.03;31.90;;;;;;;6.48;100.00;102863.25;5072208;28;20024;-47
2022/11/11 07:58:18;;;;;;;64.50;30.63;;;;;;;6.49;100.00;102870.16;5072019;28;20028;-46
2022/11/11 08:00:43;;;;;;;72.78;31.42;;;;;;;6.51;100.00;102863.50;5071507;28;20029;-44
2022/11/11 08:03:08;;;;;;;69.45;31.58;;;;;;;6.55;100.00;102870.63;5072472;28;20033;-48
2022/11/11 08:05:34;;;;;;;71.82;30.35;;;;;;;6.59;100.00;102882.03;5071579;28;20030;-45
2022/11/11 08:08:04;;;;;;;70.78;31.77;;;;;;;6.62;100.00;102881.38;5071649;28;20035;-49
2022/11/11 08:10:29;;;;;;;65.20;32.08;;;;;;;6.65;100.00;102884.16;5072230;28;20029;-48
2022/11/11 08:15:39;;;;;;;66.20;31.90;;;;;;;6.72;100.00;102891.56;5072213;28;20032;-48
2022/11/11 08:18:04;;;;;;;65.20;31.40;;;;;;;6.76;100.00;102896.16;5072043;28;20037;-49
2022/11/11 08:20:29;;;;;;;70.38;33.08;;;;;;;6.82;100.00;102899.19;5071728;28;20029;-48
2022/11/11 08:22:57;;;;;;;66.63;31.65;;;;;;;6.87;100.00;102892.75;5071902;28;20028;-49
2022/11/11 08:25:22;;;;;;;;;;;;;;;6.95;100.00;102901.03;5072234;28;20476;-49
2022/11/11 08:27:48;;;;;;;61.08;29.50;;;;;;;6.96;100.00;102896.81;5071263;28;19919;-48
2022/11/11 08:30:14;;;;;;;59.60;30.80;;;;;;;6.99;100.00;102904.75;5072268;28;20544;-48
2022/11/11 08:32:39;;;;;;;59.47;29.73;;;;;;;7.01;100.00;102904.09;5071573;28;20055;-49
2022/11/11 08:35:05;;;;;;;66.43;29.63;;;;;;;7.05;100.00;102915.44;5074409;28;20486;-46
2022/11/11 08:37:30;;;;;;;62.92;31.15;;;;;;;7.06;100.00;102907.91;5075551;28;20063;-49
2022/11/11 08:39:56;;;;;;;64.75;31.40;;;;;;;7.09;100.00;102918.38;5075124;28;20025;-45
2022/11/11 08:42:21;;;;;;;60.75;31.23;;;;;;;7.12;100.00;102927.09;5075068;28;20380;-46
2022/11/11 08:44:47;;;;;;;57.72;29.10;;;;;;;7.15;100.00;102928.22;5075184;28;20026;-47
2022/11/11 08:47:12;;;;;;;55.03;29.27;;;;;;;7.18;100.00;102925.91;5075042;28;20101;-49
2022/11/11 08:49:38;;;;;;;59.22;28.92;;;;;;;7.22;100.00;102925.34;5074045;28;20041;-49
2022/11/11 08:52:03;;;;;;;57.03;29.08;;;;;;;7.26;100.00;102931.63;5074822;28;20024;-48
2022/11/11 08:54:28;;;;;;;55.33;28.40;;;;;;;7.28;100.00;102929.16;5074923;28;20020;-48
2022/11/11 08:56:54;;;;;;;55.95;28.05;;;;;;;7.30;100.00;102933.63;5074392;28;20020;-47
2022/11/11 08:59:20;;;;;;;56.78;27.75;;;;;;;7.32;100.00;102936.31;5075534;28;20021;-49
2022/11/11 09:01:45;;;;;;;53.35;27.50;;;;;;;7.33;100.00;102931.28;5074766;28;20040;-48
2022/11/11 09:04:10;;;;;;;51.80;26.50;;;;;;;7.37;100.00;102930.78;5074660;28;20020;-46
2022/11/11 09:06:35;;;;;;;52.67;26.73;;;;;;;7.43;100.00;102934.59;5074854;28;20028;-47
2022/11/11 09:09:01;;;;;;;52.45;25.13;;;;;;;7.49;100.00;102930.81;5074744;28;20467;-48
2022/11/11 09:11:27;;;;;;;47.90;25.20;;;;;;;7.55;100.00;102930.34;5074947;28;20040;-50
2022/11/11 09:13:52;;;;;;;48.28;24.98;;;;;;;7.63;100.00;102933.50;5074947;28;20079;-48
2022/11/11 09:16:17;;;;;;;45.80;25.45;;;;;;;7.72;100.00;102929.97;5074378;28;20024;-47
2022/11/11 09:18:43;;;;;;;47.13;24.65;;;;;;;7.89;100.00;102932.91;5074754;28;20029;-49
2022/11/11 09:21:08;;;;;;;46.33;23.67;;;;;;;7.98;100.00;102927.53;5074603;28;20044;-48
2022/11/11 09:23:33;;;;;;;42.90;23.73;;;;;;;8.11;100.00;102930.25;5074020;28;20033;-46
2022/11/11 09:26:02;;;;;;;45.30;23.23;;;;;;;8.28;100.00;102939.16;5074904;28;20020;-48
2022/11/11 09:28:28;;;;;;;43.35;22.48;;;;;;;8.40;100.00;102934.00;5074368;28;20438;-49
2022/11/11 09:30:54;;;;;;;38.13;22.30;;;;;;;8.45;99.85;102926.66;5074078;28;20031;-46
2022/11/11 09:33:19;;;;;;;38.58;21.23;;;;;;;8.57;99.47;102936.16;5074581;28;20032;-48
2022/11/11 09:35:44;;;;;;;42.88;21.65;;;;;;;8.67;99.10;102937.69;5074201;28;20480;-50
2022/11/11 09:38:10;;;;;;;39.95;21.88;;;;;;;8.84;98.36;102938.88;5074230;28;20021;-49
2022/11/11 09:40:50;;;;;;;39.05;21.48;;;;;;;8.91;97.55;102935.09;5074236;28;20073;-50
2022/11/11 09:43:28;;;;;;;37.13;20.23;;;;;;;8.99;96.97;102933.94;5074288;28;20465;-46
2022/11/11 09:46:06;;;;;;;;;;;;;;;9.13;98.46;102931.41;5072734;28;20416;-45
2022/11/11 09:48:44;;;;;;;37.35;20.40;;;;;;;9.19;96.38;102937.91;5074214;28;20271;-49
2022/11/11 09:51:18;;;;;;;35.65;19.35;;;;;;;9.27;94.99;102935.84;5074038;28;20376;-49
2022/11/11 09:53:49;;;;;;;34.83;19.63;;;;;;;9.28;93.72;102940.19;5073522;28;20078;-48
2022/11/11 09:56:18;;;;;;;38.45;20.42;;;;;;;9.33;93.60;102940.50;5074277;28;20024;-48
2022/11/11 09:58:50;;;;;;;35.35;19.20;;;;;;;9.35;93.50;102941.53;5073214;28;20229;-49
2022/11/11 10:01:24;;;;;;;38.72;19.60;;;;;;;9.49;92.88;102938.19;5074070;28;20461;-48
2022/11/11 10:03:59;;;;;;;39.13;19.60;;;;;;;9.46;92.72;102942.25;5073807;28;20130;-48
2022/11/11 10:06:31;;;;;;;32.90;18.17;;;;;;;9.46;92.78;102942.25;5073399;28;20375;-49
2022/11/11 10:09:02;;;;;;;36.58;19.35;;;;;;;9.53;93.67;102947.03;5073633;28;20032;-49
2022/11/11 10:12:00;;;;;;;37.67;18.80;;;;;;;9.61;93.22;102948.44;5073700;28;20021;-49
2022/11/11 10:14:35;;;;;;;35.22;18.50;;;;;;;9.68;91.52;102942.00;5073674;28;20048;-48
2022/11/11 10:17:16;;;;;;;31.77;17.23;;;;;;;9.68;91.05;102949.72;5073997;28;20040;-47
2022/11/11 10:19:53;;;;;;;33.05;17.80;;;;;;;9.80;90.85;102950.56;5073043;28;20025;-45
2022/11/11 10:22:37;;;;;;;36.58;17.98;;;;;;;9.83;90.94;102945.59;5073810;28;20032;-49
2022/11/11 10:25:11;;;;;;;33.97;17.73;;;;;;;10.00;90.45;102948.41;5073595;28;20127;-50
2022/11/11 10:27:40;;;;;;;36.63;17.42;;;;;;;10.00;89.32;102948.41;5072587;28;20024;-48
2022/11/11 10:30:20;;;;;;;30.92;16.55;;;;;;;10.04;89.19;102956.44;5073609;28;20107;-49
2022/11/11 10:33:11;;;;;;;34.47;16.92;;;;;;;10.08;89.36;102957.50;5072977;28;20047;-49
2022/11/11 10:35:40;;;;;;;33.17;16.85;;;;;;;10.18;88.33;102954.75;5072728;28;20078;-46
2022/11/11 10:38:19;;;;;;;32.42;15.90;;;;;;;10.36;87.53;102949.03;5073520;28;20138;-48
2022/11/11 10:40:50;;;;;;;34.97;16.13;;;;;;;10.36;86.68;102954.19;5072566;28;20495;-49
2022/11/11 10:43:23;;;;;;;29.95;16.05;;;;;;;10.37;86.73;102956.88;5073499;28;20036;-48
2022/11/11 10:46:05;;;;;;;31.65;15.68;;;;;;;10.47;87.15;102952.31;5072831;28;20027;-49
2022/11/11 10:48:40;;;;;;;28.75;15.57;;;;;;;10.59;85.72;102957.34;5072631;28;20093;-49
2022/11/11 10:51:06;;;;;;;25.40;14.70;;;;;;;10.74;85.08;102950.56;5073178;28;20020;-49
2022/11/11 10:53:51;;;;;;;32.95;15.55;;;;;;;10.79;84.64;102954.31;5072886;28;20104;-49
2022/11/11 10:56:42;;;;;;;29.90;15.40;;;;;;;10.86;84.65;102959.09;5072596;28;20029;-49
2022/11/11 10:59:23;;;;;;;26.42;14.23;;;;;;;10.99;84.03;102957.28;5073337;28;20024;-49
2022/11/11 11:01:59;;;;;;;27.38;13.70;;;;;;;11.10;83.79;102953.66;5072385;28;20032;-49
2022/11/11 11:04:36;;;;;;;26.77;14.60;;;;;;;11.29;82.93;102955.66;5073152;28;20039;-49
2022/11/11 11:07:04;;;;;;;27.00;13.00;;;;;;;11.45;81.02;102957.50;5072900;28;20036;-48
2022/11/11 11:09:29;;;;;;;24.70;13.50;;;;;;;11.46;81.15;102950.63;5072477;28;20097;-49
2022/11/11 11:12:06;;;;;;;21.05;12.32;;;;;;;11.59;80.54;102949.69;5072623;28;20024;-48
2022/11/11 11:14:42;;;;;;;28.05;12.95;;;;;;;11.56;79.52;102955.56;5072971;28;20031;-48
2022/11/11 11:17:14;;;;;;;28.15;12.50;;;;;;;11.40;80.07;102951.16;5072633;28;20028;-48
2022/11/11 11:19:39;;;;;;;25.38;11.60;;;;;;;11.56;80.95;102944.34;5072792;28;20025;-49
2022/11/11 11:22:05;;;;;;;20.67;10.85;;;;;;;11.63;80.02;102941.28;5072557;28;20440;-49
2022/11/11 11:24:36;;;;;;;25.67;11.90;;;;;;;11.66;79.65;102936.34;5072200;28;20051;-49
2022/11/11 11:27:07;;;;;;;22.45;11.68;;;;;;;11.60;79.75;102935.97;5072861;28;20039;-48
2022/11/11 11:29:41;;;;;;;19.05;10.10;;;;;;;11.53;80.70;102943.34;5072737;28;20016;-48
2022/11/11 11:32:14;;;;;;;24.45;9.70;;;;;;;11.56;79.43;102936.59;5072344;28;20025;-49
2022/11/11 11:34:46;;;;;;;20.45;9.93;;;;;;;11.42;79.29;102939.22;5071996;28;20024;-49
2022/11/11 11:37:12;;;;;;;20.48;8.98;;;;;;;11.36;79.35;102931.09;5072134;28;20032;-48
2022/11/11 11:39:38;;;;;;;21.65;9.13;;;;;;;11.36;80.02;102933.69;5072573;28;20020;-48
2022/11/11 11:42:05;;;;;;;20.63;9.23;;;;;;;11.40;80.36;102934.78;5072646;28;20028;-50
2022/11/11 11:44:35;;;;;;;18.45;8.48;;;;;;;11.48;80.74;102928.38;5071992;28;20448;-46
2022/11/11 11:47:31;;;;;;;18.40;9.00;;;;;;;11.60;80.78;102931.69;5072559;28;20037;-48
2022/11/11 11:50:25;;;;;;;16.52;8.65;;;;;;;11.65;81.15;102931.97;5071769;28;20541;-48
2022/11/11 11:53:06;;;;;;;14.90;7.43;;;;;;;11.70;79.62;102927.97;5060265;28;20041;-50
2022/11/11 11:55:36;;;;;;;19.92;7.95;;;;;;;11.70;79.02;102917.63;5072322;28;20025;-49
2022/11/11 11:58:19;;;;;;;19.13;7.50;;;;;;;11.83;80.49;102924.41;5071972;28;20026;-46
2022/11/11 12:01:07;;;;;;;16.80;6.60;;;;;;;11.90;78.40;102925.63;5072358;28;20028;-48
2022/11/11 12:04:00;;;;;;;14.07;6.35;;;;;;;12.08;79.08;102908.59;5072122;28;20383;-50
2022/11/11 12:07:03;;;;;;;12.23;5.95;;;;;;;12.03;77.45;102912.63;5071807;28;20035;-50
2022/11/11 12:10:00;;;;;;;13.40;6.18;;;;;;;12.12;77.17;102922.59;5074624;28;20033;-45
2022/11/11 12:12:49;;;;;;;15.40;6.28;;;;;;;12.21;76.75;102922.25;5075653;28;20048;-50
2022/11/11 12:15:32;;;;;;;14.10;5.60;;;;;;;12.33;76.87;102918.66;5076334;28;20039;-49
2022/11/11 12:18:09;;;;;;;14.73;5.90;;;;;;;12.42;76.18;102918.28;5075623;28;20029;-46
2022/11/11 12:20:50;;;;;;;14.18;5.82;;;;;;;12.48;76.32;102916.00;5075233;28;20029;-48
2022/11/11 12:23:40;;;;;;;11.48;5.15;;;;;;;12.61;75.73;102911.50;5076168;28;20021;-49
2022/11/11 12:26:24;;;;;;;7.75;4.43;;;;;;;12.79;75.42;102911.63;5076108;28;20036;-48
2022/11/11 12:29:01;;;;;;;11.45;4.68;;;;;;;12.78;72.87;102902.97;5075627;28;20024;-49
2022/11/11 12:32:02;;;;;;;13.63;4.75;;;;;;;12.83;74.70;102895.44;5075635;28;20028;-50
2022/11/11 12:34:40;;;;;;;9.45;4.78;;;;;;;12.75;73.77;102899.31;5075207;28;20027;-49
2022/11/11 12:37:24;;;;;;;12.52;4.82;;;;;;;12.77;73.00;102889.94;5075715;28;20025;-49
2022/11/11 12:40:06;;;;;;;10.05;4.25;;;;;;;12.65;72.99;102887.59;5075132;28;20028;-50
2022/11/11 12:43:09;;;;;;;12.00;4.15;;;;;;;12.68;74.02;102886.06;5075205;28;20070;-49
2022/11/11 12:45:46;;;;;;;12.75;4.93;;;;;;;12.78;73.22;102886.53;5075167;28;20043;-47